Time;durP1;ratioP1;P1;durP2;ratioP2;P2;SDS_P1;SDS_P2;PMS_P1;PMS_P2;Temp;Humidity;BMP_temperature;BMP_pressure;BME280_temperature;BME280_humidity;BME280_pressure;Samples;Min_cycle;Max_cycle;Signal;HPM_P1;HPM_P2
2021/08/31 00:02:06;;;;;;;23.50;9.73;;;15.20;97.30;;;;;;5035852;28;20193;-83
2021/08/31 00:04:31;;;;;;;17.33;8.47;;;15.20;97.30;;;;;;5035865;28;20195;-83
2021/08/31 00:06:57;;;;;;;14.30;7.77;;;15.20;97.30;;;;;;5052874;28;20318;-84
2021/08/31 00:09:24;;;;;;;18.90;9.73;;;15.20;97.30;;;;;;5034654;28;20172;-86
2021/08/31 00:11:50;;;;;;;16.97;9.20;;;15.20;97.30;;;;;;5052428;28;20172;-83
2021/08/31 00:14:15;;;;;;;13.47;7.50;;;15.20;97.30;;;;;;5046457;28;20449;-83
2021/08/31 00:16:41;;;;;;;17.37;8.47;;;15.20;97.30;;;;;;5037235;28;20419;-83
2021/08/31 00:19:07;;;;;;;13.50;8.00;;;15.20;97.30;;;;;;5028100;28;20191;-83
2021/08/31 00:21:32;;;;;;;18.40;8.20;;;15.20;97.30;;;;;;5034535;28;20234;-83
2021/08/31 00:23:58;;;;;;;12.40;7.03;;;15.20;97.30;;;;;;5034313;28;20257;-83
2021/08/31 00:26:23;;;;;;;13.90;8.17;;;15.20;97.30;;;;;;5033517;28;20180;-83
2021/08/31 00:28:49;;;;;;;15.50;8.60;;;15.20;97.30;;;;;;5052352;28;20566;-83
2021/08/31 00:31:14;;;;;;;19.80;8.83;;;15.20;97.30;;;;;;5035429;28;20283;-83
2021/08/31 00:33:40;;;;;;;18.93;8.50;;;15.20;97.30;;;;;;5035620;28;20188;-83
2021/08/31 00:36:05;;;;;;;15.57;7.90;;;15.20;97.30;;;;;;5035673;28;20183;-83
2021/08/31 00:38:31;;;;;;;14.10;7.90;;;15.20;97.30;;;;;;5035216;28;20218;-83
2021/08/31 00:40:58;;;;;;;15.90;8.07;;;15.10;97.30;;;;;;5034343;28;20163;-83
2021/08/31 00:43:23;;;;;;;16.47;8.00;;;15.10;97.30;;;;;;5052348;28;20421;-83
2021/08/31 00:45:49;;;;;;;17.33;8.20;;;15.10;97.30;;;;;;5034421;28;20438;-83
2021/08/31 00:48:24;;;;;;;14.70;7.53;;;15.10;97.30;;;;;;5034483;28;20239;-83
2021/08/31 00:50:52;;;;;;;17.27;7.73;;;15.00;97.30;;;;;;5033633;28;20559;-83
2021/08/31 00:53:17;;;;;;;18.50;8.00;;;15.00;97.30;;;;;;5034022;28;20422;-83
2021/08/31 00:55:44;;;;;;;17.73;8.67;;;15.00;97.30;;;;;;5034222;28;20492;-83
2021/08/31 00:58:10;;;;;;;18.90;8.83;;;15.00;97.30;;;;;;5034328;28;20200;-83
2021/08/31 01:00:36;;;;;;;18.37;8.57;;;15.00;97.30;;;;;;5034281;28;20501;-83
2021/08/31 01:03:02;;;;;;;19.53;7.70;;;15.00;97.30;;;;;;5034427;28;21039;-82
2021/08/31 01:05:30;;;;;;;18.47;8.50;;;15.00;97.30;;;;;;5035444;28;20438;-83
2021/08/31 01:07:56;;;;;;;19.20;8.03;;;15.00;97.30;;;;;;5053174;28;20172;-82
2021/08/31 01:10:21;;;;;;;18.50;8.00;;;15.00;97.30;;;;;;5035317;28;20936;-82
2021/08/31 01:12:47;;;;;;;20.87;9.23;;;15.00;97.30;;;;;;5034388;28;20410;-83
2021/08/31 01:15:14;;;;;;;14.90;8.77;;;15.00;97.30;;;;;;5030494;28;20205;-83
2021/08/31 01:17:39;;;;;;;18.93;9.50;;;15.00;97.30;;;;;;5023189;28;20430;-83
2021/08/31 01:20:05;;;;;;;14.87;8.53;;;15.00;97.30;;;;;;5032625;28;20407;-83
2021/08/31 01:22:30;;;;;;;18.03;7.93;;;15.00;97.30;;;;;;5017455;28;20212;-83
2021/08/31 01:25:04;;;;;;;13.80;7.83;;;15.00;97.30;;;;;;5017346;28;20189;-83
2021/08/31 01:27:29;;;;;;;13.90;8.00;;;15.00;97.30;;;;;;5017476;28;20165;-83
2021/08/31 01:29:57;;;;;;;16.83;8.50;;;15.00;97.30;;;;;;5017541;28;20515;-83
2021/08/31 01:32:22;;;;;;;15.27;7.90;;;15.00;97.30;;;;;;5017391;28;20179;-83
2021/08/31 01:34:48;;;;;;;17.73;8.20;;;14.90;97.30;;;;;;5017445;28;20463;-83
2021/08/31 01:37:13;;;;;;;15.27;7.40;;;15.00;97.30;;;;;;5018007;28;20172;-83
2021/08/31 01:39:40;;;;;;;16.20;7.63;;;14.90;97.30;;;;;;5035354;28;20200;-83
2021/08/31 01:42:05;;;;;;;12.70;7.80;;;14.90;97.30;;;;;;5036592;28;20173;-83
2021/08/31 01:44:31;;;;;;;16.43;8.80;;;14.90;97.30;;;;;;5018553;28;20450;-83
2021/08/31 01:46:56;;;;;;;16.80;8.07;;;14.90;97.30;;;;;;5018191;28;20263;-83
2021/08/31 01:49:22;;;;;;;12.63;7.43;;;14.90;97.30;;;;;;5017668;28;20188;-83
2021/08/31 01:51:47;;;;;;;14.23;7.57;;;14.90;97.30;;;;;;5033684;28;20185;-83
2021/08/31 01:54:13;;;;;;;11.37;7.20;;;14.90;97.30;;;;;;5017077;28;20302;-83
2021/08/31 01:56:39;;;;;;;16.70;8.37;;;14.90;97.30;;;;;;5033589;28;20212;-83
2021/08/31 01:59:06;;;;;;;14.83;7.97;;;14.90;97.30;;;;;;5016540;28;20263;-83
2021/08/31 02:01:31;;;;;;;14.27;7.80;;;14.80;97.30;;;;;;5016847;28;20495;-83
2021/08/31 02:03:57;;;;;;;14.50;7.80;;;14.80;97.30;;;;;;5025756;28;20873;-83
2021/08/31 02:06:23;;;;;;;17.23;8.90;;;14.80;97.30;;;;;;5029600;28;20180;-83
2021/08/31 02:08:48;;;;;;;24.30;9.00;;;14.80;97.30;;;;;;5016961;28;20185;-83
2021/08/31 02:11:14;;;;;;;20.10;7.90;;;14.80;97.30;;;;;;5017248;28;20442;-83
2021/08/31 02:13:39;;;;;;;14.50;7.37;;;14.80;97.30;;;;;;5018362;28;20231;-83
2021/08/31 02:16:05;;;;;;;16.47;8.73;;;14.70;97.30;;;;;;5018329;28;20268;-82
2021/08/31 02:18:30;;;;;;;18.50;9.90;;;14.70;97.30;;;;;;5018398;28;20216;-82
2021/08/31 02:20:56;;;;;;;20.17;8.33;;;14.70;97.30;;;;;;5017245;28;20176;-83
2021/08/31 02:23:22;;;;;;;14.83;8.20;;;14.70;97.30;;;;;;5018178;28;20212;-84
2021/08/31 02:25:47;;;;;;;15.30;7.70;;;14.70;97.30;;;;;;5034642;28;20196;-83
2021/08/31 02:28:13;;;;;;;16.27;7.83;;;14.60;97.30;;;;;;5036431;28;20188;-82
2021/08/31 02:30:39;;;;;;;18.53;8.40;;;14.60;97.30;;;;;;5021992;28;20188;-83
2021/08/31 02:33:04;;;;;;;12.77;7.13;;;14.60;97.30;;;;;;5021778;28;20195;-83
2021/08/31 02:35:31;;;;;;;20.13;9.00;;;14.60;97.30;;;;;;5033574;28;20858;-83
2021/08/31 02:37:57;;;;;;;18.03;8.83;;;14.60;97.30;;;;;;5016082;28;20216;-83
2021/08/31 02:40:22;;;;;;;18.17;8.50;;;14.60;97.30;;;;;;5016232;28;20403;-82
2021/08/31 02:42:48;;;;;;;13.97;8.30;;;14.60;97.30;;;;;;5016247;28;20187;-83
2021/08/31 02:45:13;;;;;;;17.67;8.37;;;14.60;97.30;;;;;;5016987;28;20200;-83
2021/08/31 02:47:39;;;;;;;24.33;8.80;;;14.60;97.30;;;;;;5017637;28;20180;-83
2021/08/31 02:50:06;;;;;;;15.80;7.13;;;14.60;97.30;;;;;;5033836;28;20220;-83
2021/08/31 02:52:31;;;;;;;20.07;8.57;;;14.60;97.30;;;;;;5017893;28;20180;-83
2021/08/31 02:54:57;;;;;;;13.67;7.50;;;14.60;97.30;;;;;;5016733;28;20496;-83
2021/08/31 02:57:22;;;;;;;15.73;7.80;;;14.60;97.30;;;;;;5016611;28;20176;-83
2021/08/31 02:59:48;;;;;;;21.07;8.03;;;14.60;97.30;;;;;;5016131;28;20203;-82
2021/08/31 03:02:14;;;;;;;25.93;9.50;;;14.60;97.30;;;;;;5016417;28;20282;-83
2021/08/31 03:04:43;;;;;;;15.17;7.77;;;14.60;97.30;;;;;;5033268;28;20193;-83
2021/08/31 03:07:14;;;;;;;21.10;8.97;;;14.60;97.30;;;;;;5015216;28;20723;-83
2021/08/31 03:09:46;;;;;;;16.50;8.33;;;14.60;97.30;;;;;;5015562;28;20415;-86
2021/08/31 03:12:11;;;;;;;17.50;7.80;;;14.60;97.30;;;;;;5016030;28;20430;-82
2021/08/31 03:14:37;;;;;;;18.00;8.83;;;14.60;97.30;;;;;;5015457;28;20432;-83
2021/08/31 03:17:03;;;;;;;23.57;9.97;;;14.60;97.30;;;;;;5015953;28;20211;-83
2021/08/31 03:19:29;;;;;;;19.17;8.47;;;14.60;97.30;;;;;;5034128;28;20467;-83
2021/08/31 03:21:58;;;;;;;21.70;10.30;;;14.60;97.30;;;;;;5034744;28;20176;-82
2021/08/31 03:24:24;;;;;;;20.33;9.00;;;14.50;97.30;;;;;;5034406;28;20192;-83
2021/08/31 03:26:51;;;;;;;24.40;10.20;;;14.50;97.30;;;;;;5016634;28;21139;-83
2021/08/31 03:29:17;;;;;;;20.07;9.50;;;14.50;97.30;;;;;;5016134;28;20423;-83
2021/08/31 03:31:43;;;;;;;26.77;11.00;;;14.50;97.30;;;;;;5016391;28;20428;-83
2021/08/31 03:34:09;;;;;;;17.77;9.80;;;14.50;97.30;;;;;;5015606;28;20455;-82
2021/08/31 03:36:34;;;;;;;19.43;9.57;;;14.50;97.30;;;;;;5032306;28;20349;-83
2021/08/31 03:39:00;;;;;;;20.60;9.80;;;14.50;97.30;;;;;;5031281;28;20473;-82
2021/08/31 03:41:25;;;;;;;25.03;10.43;;;14.50;97.30;;;;;;5015016;28;20278;-83
2021/08/31 03:43:51;;;;;;;19.83;8.97;;;14.50;97.30;;;;;;5014877;28;20825;-82
2021/08/31 03:46:17;;;;;;;23.23;10.93;;;14.50;97.30;;;;;;5015331;28;20173;-83
2021/08/31 03:48:42;;;;;;;16.93;9.07;;;14.50;97.30;;;;;;5015323;28;20651;-83
2021/08/31 03:51:08;;;;;;;22.37;9.30;;;14.50;97.30;;;;;;5016281;28;20458;-82
2021/08/31 03:53:33;;;;;;;17.30;9.23;;;14.40;97.30;;;;;;5033847;28;20211;-82
2021/08/31 03:55:59;;;;;;;18.13;8.80;;;14.40;97.30;;;;;;5016496;28;20251;-82
2021/08/31 03:58:25;;;;;;;19.00;9.43;;;14.40;97.30;;;;;;5016623;28;20204;-83
2021/08/31 04:00:50;;;;;;;24.93;11.00;;;14.40;97.30;;;;;;5032958;28;20173;-83
2021/08/31 04:03:17;;;;;;;19.67;10.07;;;14.40;97.30;;;;;;5015096;28;20172;-83
2021/08/31 04:05:44;;;;;;;22.20;10.40;;;14.40;97.30;;;;;;5033034;28;20216;-83
2021/08/31 04:08:09;;;;;;;16.43;9.87;;;14.40;97.30;;;;;;5025152;28;20426;-81
2021/08/31 04:10:35;;;;;;;18.70;10.00;;;14.40;97.30;;;;;;5015186;28;20815;-83
2021/08/31 04:13:00;;;;;;;20.70;10.20;;;14.40;97.30;;;;;;5014855;28;20559;-83
2021/08/31 04:15:26;;;;;;;20.20;9.60;;;14.40;97.30;;;;;;5032588;28;20279;-82
2021/08/31 04:17:51;;;;;;;22.47;10.40;;;14.40;97.30;;;;;;5014812;28;20200;-83
2021/08/31 04:20:17;;;;;;;16.83;8.80;;;14.40;97.30;;;;;;5032451;28;20181;-83
2021/08/31 04:22:42;;;;;;;20.13;9.67;;;14.40;97.30;;;;;;5014920;28;20172;-83
2021/08/31 04:25:08;;;;;;;22.20;9.50;;;14.40;97.30;;;;;;5015718;28;20674;-82
2021/08/31 04:27:34;;;;;;;17.40;8.77;;;14.40;97.30;;;;;;5016118;28;20666;-83
2021/08/31 04:29:59;;;;;;;22.67;9.90;;;14.40;97.30;;;;;;5016129;28;20439;-82
2021/08/31 04:32:25;;;;;;;20.70;8.70;;;14.40;97.30;;;;;;5016211;28;20652;-83
2021/08/31 04:34:55;;;;;;;24.70;9.63;;;14.40;97.30;;;;;;5052350;28;20273;-83
2021/08/31 04:37:21;;;;;;;17.17;8.60;;;14.40;97.30;;;;;;5034636;28;20808;-83
2021/08/31 04:39:47;;;;;;;18.33;9.70;;;14.40;97.30;;;;;;5034291;28;20462;-82
2021/08/31 04:42:12;;;;;;;21.23;10.10;;;14.30;97.30;;;;;;5034156;28;20430;-83
2021/08/31 04:44:38;;;;;;;24.63;9.37;;;14.30;97.30;;;;;;5033955;28;20196;-82
2021/08/31 04:47:03;;;;;;;21.57;10.10;;;14.30;97.30;;;;;;5052044;28;20180;-83
2021/08/31 04:49:29;;;;;;;24.63;10.10;;;14.30;97.30;;;;;;5036674;28;20820;-83
2021/08/31 04:51:54;;;;;;;18.63;9.20;;;14.30;97.30;;;;;;5032168;28;20196;-83
2021/08/31 04:54:20;;;;;;;22.87;9.47;;;14.30;97.30;;;;;;5015414;28;20200;-83
2021/08/31 04:56:46;;;;;;;17.57;8.83;;;14.30;97.30;;;;;;5018875;28;20208;-83
2021/08/31 04:59:11;;;;;;;14.23;8.70;;;14.20;97.30;;;;;;5019773;28;20490;-83
2021/08/31 05:01:37;;;;;;;18.03;9.10;;;14.20;97.30;;;;;;5019673;28;20177;-83
2021/08/31 05:04:02;;;;;;;20.97;10.33;;;14.20;97.30;;;;;;5019452;28;20204;-83
2021/08/31 05:06:28;;;;;;;16.90;8.73;;;14.20;97.30;;;;;;5024730;28;20180;-83
2021/08/31 05:08:53;;;;;;;17.60;9.43;;;14.20;97.30;;;;;;5034778;28;20177;-83
2021/08/31 05:11:22;;;;;;;16.90;9.53;;;14.20;97.30;;;;;;5022463;28;20189;-83
2021/08/31 05:13:48;;;;;;;16.87;9.47;;;14.20;97.30;;;;;;5021388;28;20179;-83
2021/08/31 05:16:16;;;;;;;19.73;7.77;;;14.20;97.30;;;;;;5034981;28;21124;-83
2021/08/31 05:18:42;;;;;;;20.93;8.53;;;14.20;97.30;;;;;;5044443;28;20197;-83
2021/08/31 05:21:11;;;;;;;15.77;8.80;;;14.20;97.30;;;;;;5020398;28;20421;-84
2021/08/31 05:23:39;;;;;;;19.23;9.57;;;14.30;97.30;;;;;;5022108;28;20461;-82
2021/08/31 05:26:05;;;;;;;15.87;8.33;;;14.30;97.30;;;;;;5035806;28;20481;-84
2021/08/31 05:28:30;;;;;;;19.87;9.57;;;14.30;97.30;;;;;;5039071;28;20920;-84
2021/08/31 05:30:56;;;;;;;26.53;8.70;;;14.30;97.30;;;;;;5037912;28;20581;-83
2021/08/31 05:33:21;;;;;;;17.33;8.70;;;14.30;97.30;;;;;;5056335;28;20195;-83
2021/08/31 05:35:47;;;;;;;14.87;8.20;;;14.30;97.30;;;;;;5036912;28;20227;-83
2021/08/31 05:38:12;;;;;;;18.33;9.33;;;14.30;97.30;;;;;;5038418;28;20208;-83
2021/08/31 05:40:38;;;;;;;14.23;8.27;;;14.30;97.30;;;;;;5037940;28;20176;-83
2021/08/31 05:43:03;;;;;;;16.43;8.67;;;14.40;97.30;;;;;;5036685;28;20180;-83
2021/08/31 05:45:29;;;;;;;15.27;7.60;;;14.40;97.30;;;;;;5037113;28;20214;-84
2021/08/31 05:47:55;;;;;;;23.00;9.00;;;14.40;97.30;;;;;;5055357;28;20677;-83
2021/08/31 05:50:21;;;;;;;17.90;8.13;;;14.40;97.30;;;;;;5054959;28;20206;-83
2021/08/31 05:52:49;;;;;;;20.63;8.70;;;14.40;97.30;;;;;;5037001;28;20430;-83
2021/08/31 05:55:17;;;;;;;19.37;8.50;;;14.50;97.30;;;;;;5036303;28;20434;-83
2021/08/31 05:57:43;;;;;;;18.27;8.77;;;14.50;97.30;;;;;;5036796;28;20434;-83
2021/08/31 06:00:11;;;;;;;18.23;7.87;;;14.50;97.30;;;;;;5036763;28;20417;-83
2021/08/31 06:02:38;;;;;;;19.83;8.50;;;14.50;97.30;;;;;;5036676;28;20509;-83
2021/08/31 06:05:07;;;;;;;19.43;8.53;;;14.50;97.30;;;;;;5037229;28;20438;-83
2021/08/31 06:07:34;;;;;;;16.67;7.80;;;14.50;97.30;;;;;;5037456;28;20414;-84
2021/08/31 06:10:01;;;;;;;21.33;8.80;;;14.50;97.30;;;;;;5032075;28;20455;-83
2021/08/31 06:12:27;;;;;;;17.97;8.37;;;14.50;97.30;;;;;;5026337;28;20412;-83
2021/08/31 06:14:52;;;;;;;19.90;8.97;;;14.50;97.30;;;;;;5031401;28;20428;-83
2021/08/31 06:17:19;;;;;;;17.10;8.73;;;14.50;97.30;;;;;;5036836;28;20175;-83
2021/08/31 06:19:45;;;;;;;16.07;7.27;;;14.60;97.30;;;;;;5036800;28;20199;-83
2021/08/31 06:22:10;;;;;;;18.33;8.57;;;14.50;97.30;;;;;;5031282;28;20421;-83
2021/08/31 06:24:36;;;;;;;13.83;6.93;;;14.60;97.30;;;;;;5019570;28;20192;-82
2021/08/31 06:27:03;;;;;;;14.73;7.63;;;14.60;97.30;;;;;;5027453;28;20310;-83
2021/08/31 06:29:29;;;;;;;16.50;7.47;;;14.60;97.30;;;;;;5036385;28;20179;-83
2021/08/31 06:31:55;;;;;;;21.53;9.23;;;14.60;97.30;;;;;;5033788;28;20410;-84
2021/08/31 06:34:20;;;;;;;17.93;9.60;;;14.70;97.30;;;;;;5016222;28;20270;-83
2021/08/31 06:36:47;;;;;;;16.50;8.40;;;14.70;97.30;;;;;;5016222;28;20426;-83
2021/08/31 06:39:13;;;;;;;19.20;9.70;;;14.80;97.30;;;;;;5016550;28;20226;-84
2021/08/31 06:41:38;;;;;;;17.10;8.77;;;14.80;97.30;;;;;;5033694;28;20430;-83
2021/08/31 06:44:04;;;;;;;17.47;8.83;;;14.80;97.30;;;;;;5037660;28;20222;-84
2021/08/31 06:46:29;;;;;;;14.60;7.80;;;14.80;97.30;;;;;;5037018;28;20362;-83
2021/08/31 06:48:55;;;;;;;19.57;8.17;;;14.90;97.30;;;;;;5037039;28;20180;-83
2021/08/31 06:51:20;;;;;;;16.77;9.20;;;14.90;97.30;;;;;;5035743;28;20921;-83
2021/08/31 06:53:46;;;;;;;16.80;9.77;;;14.90;97.30;;;;;;5036716;28;20182;-83
2021/08/31 06:56:11;;;;;;;21.50;9.73;;;14.90;97.30;;;;;;5036321;28;20175;-83
2021/08/31 06:58:37;;;;;;;16.77;8.47;;;15.00;97.30;;;;;;5035978;28;20243;-83
2021/08/31 07:01:02;;;;;;;25.07;9.60;;;15.00;97.30;;;;;;5034856;28;20172;-83
2021/08/31 07:03:28;;;;;;;17.13;9.30;;;15.00;97.30;;;;;;5029429;28;20665;-82
2021/08/31 07:05:53;;;;;;;17.30;8.90;;;15.00;97.30;;;;;;5026328;28;20287;-84
2021/08/31 07:08:19;;;;;;;16.30;8.87;;;15.10;97.30;;;;;;5035011;28;20176;-83
2021/08/31 07:10:44;;;;;;;16.67;9.40;;;15.10;97.30;;;;;;5036276;28;20650;-82
2021/08/31 07:13:10;;;;;;;19.03;9.57;;;15.10;97.30;;;;;;5036320;28;20179;-83
2021/08/31 07:15:36;;;;;;;18.10;8.40;;;15.20;97.30;;;;;;5036768;28;20191;-83
2021/08/31 07:18:03;;;;;;;24.30;9.70;;;15.20;97.30;;;;;;5035269;28;20450;-84
2021/08/31 07:20:28;;;;;;;16.70;8.43;;;15.30;97.30;;;;;;5035972;28;20410;-83
2021/08/31 07:22:54;;;;;;;17.37;9.00;;;15.30;97.30;;;;;;5053814;28;20402;-83
2021/08/31 07:25:20;;;;;;;17.80;8.40;;;15.40;97.30;;;;;;5035714;28;20540;-84
2021/08/31 07:27:46;;;;;;;22.83;9.70;;;15.40;97.30;;;;;;5035654;28;20410;-83
2021/08/31 07:30:12;;;;;;;20.17;9.57;;;15.50;97.30;;;;;;5053533;28;20527;-83
2021/08/31 07:32:37;;;;;;;16.80;9.17;;;15.60;97.30;;;;;;5034821;28;20206;-82
2021/08/31 07:35:04;;;;;;;24.50;9.60;;;15.60;97.30;;;;;;5052579;28;20462;-83
2021/08/31 07:37:29;;;;;;;20.73;9.60;;;15.70;97.30;;;;;;5052887;28;20172;-83
2021/08/31 07:39:55;;;;;;;18.33;9.10;;;15.70;97.30;;;;;;5052612;28;21038;-83
2021/08/31 07:42:20;;;;;;;21.43;9.23;;;15.70;97.30;;;;;;5034898;28;20176;-83
2021/08/31 07:44:46;;;;;;;19.70;9.70;;;15.80;97.30;;;;;;5035639;28;20273;-83
2021/08/31 07:47:13;;;;;;;20.47;12.00;;;15.80;97.30;;;;;;5036248;28;20172;-83
2021/08/31 07:49:38;;;;;;;22.23;10.67;;;15.80;97.30;;;;;;5020155;28;20693;-83
2021/08/31 07:52:04;;;;;;;14.90;9.10;;;15.80;97.30;;;;;;5016103;28;20411;-83
2021/08/31 07:54:30;;;;;;;17.63;10.27;;;15.90;97.30;;;;;;5015604;28;20287;-83
2021/08/31 07:56:56;;;;;;;17.80;8.83;;;15.90;97.30;;;;;;5015617;28;20182;-84
2021/08/31 07:59:21;;;;;;;15.60;8.87;;;16.00;97.30;;;;;;5015118;28;20557;-83
2021/08/31 08:01:47;;;;;;;21.20;10.40;;;16.00;97.30;;;;;;5015086;28;20172;-84
2021/08/31 08:04:12;;;;;;;18.70;8.63;;;16.00;97.30;;;;;;5032026;28;20761;-83
2021/08/31 08:06:39;;;;;;;14.13;8.53;;;16.00;97.30;;;;;;5014426;28;20168;-84
2021/08/31 08:09:05;;;;;;;17.93;8.83;;;16.00;97.30;;;;;;5032372;28;20781;-83
2021/08/31 08:11:31;;;;;;;15.70;8.77;;;16.00;97.30;;;;;;5014933;28;20419;-83
2021/08/31 08:13:56;;;;;;;16.50;8.60;;;16.00;97.30;;;;;;5032696;28;20210;-83
2021/08/31 08:16:22;;;;;;;19.07;9.53;;;16.10;97.30;;;;;;5015215;28;20243;-83
2021/08/31 08:18:48;;;;;;;14.03;7.30;;;16.10;97.30;;;;;;5016429;28;20215;-84
2021/08/31 08:21:14;;;;;;;17.47;8.93;;;16.10;97.30;;;;;;5034148;28;20172;-83
2021/08/31 08:23:40;;;;;;;15.57;7.83;;;16.10;97.30;;;;;;5035847;28;20497;-83
2021/08/31 08:26:08;;;;;;;13.63;6.80;;;16.20;97.30;;;;;;5034563;28;20436;-83
2021/08/31 08:28:34;;;;;;;14.63;7.33;;;16.30;97.30;;;;;;5035048;28;20422;-83
2021/08/31 08:31:00;;;;;;;12.17;6.50;;;16.30;97.30;;;;;;5038937;28;20468;-83
2021/08/31 08:33:25;;;;;;;13.33;7.53;;;16.40;97.30;;;;;;5039391;28;20410;-83
2021/08/31 08:35:51;;;;;;;15.20;7.80;;;16.50;97.30;;;;;;5037776;28;20693;-83
2021/08/31 08:38:18;;;;;;;13.80;6.80;;;16.50;97.30;;;;;;5038190;28;20302;-84
2021/08/31 08:40:44;;;;;;;18.63;7.80;;;16.60;97.30;;;;;;5038270;28;20249;-83
2021/08/31 08:43:14;;;;;;;11.30;6.67;;;16.60;97.30;;;;;;5038796;28;20460;-82
2021/08/31 08:45:43;;;;;;;19.70;8.53;;;16.70;97.30;;;;;;5055790;28;20434;-82
2021/08/31 08:48:18;;;;;;;12.40;6.73;;;16.90;97.30;;;;;;5034343;28;20454;-82
2021/08/31 08:50:45;;;;;;;12.40;7.73;;;17.00;97.30;;;;;;5024585;28;20430;-83
2021/08/31 08:53:11;;;;;;;11.90;6.70;;;17.00;97.30;;;;;;5044217;28;20414;-84
2021/08/31 08:55:37;;;;;;;13.97;7.47;;;17.00;97.30;;;;;;5045158;28;20465;-81
2021/08/31 08:58:02;;;;;;;14.17;7.70;;;17.00;97.30;;;;;;5059817;28;20674;-83
2021/08/31 09:00:53;;;;;;;10.80;6.80;;;17.00;97.30;;;;;;5061548;28;20236;-83
2021/08/31 09:03:20;;;;;;;12.30;7.07;;;17.00;97.30;;;;;;5041025;28;20233;-82
2021/08/31 09:05:45;;;;;;;13.60;7.70;;;17.00;97.30;;;;;;5060678;28;20422;-82
2021/08/31 09:08:11;;;;;;;19.00;7.60;;;17.10;97.30;;;;;;5060632;28;20968;-82
2021/08/31 09:10:37;;;;;;;14.73;8.00;;;17.10;97.30;;;;;;5042208;28;20180;-83
2021/08/31 09:13:03;;;;;;;12.80;7.33;;;17.10;97.30;;;;;;5041695;28;20188;-83
2021/08/31 09:15:37;;;;;;;11.03;6.50;;;17.00;97.30;;;;;;5036116;28;20725;-83
2021/08/31 09:18:07;;;;;;;12.33;6.67;;;17.00;97.30;;;;;;5039878;28;20457;-83
2021/08/31 09:20:56;;;;;;;12.10;6.67;;;17.10;97.30;;;;;;5039974;28;20936;-83
2021/08/31 09:23:30;;;;;;;12.80;6.27;;;17.10;97.30;;;;;;5041243;28;20448;-82
2021/08/31 09:26:06;;;;;;;10.43;6.80;;;17.20;97.30;;;;;;5041193;28;20493;-83
2021/08/31 09:28:37;;;;;;;17.37;7.37;;;17.20;97.30;;;;;;5058029;28;20418;-82
2021/08/31 09:31:07;;;;;;;11.07;6.37;;;17.20;97.30;;;;;;5038351;28;20445;-83
2021/08/31 09:33:40;;;;;;;8.60;5.40;;;17.30;97.30;;;;;;5039172;28;20521;-83
2021/08/31 09:36:15;;;;;;;11.17;5.90;;;17.30;97.30;;;;;;5038666;28;20426;-83
2021/08/31 09:39:02;;;;;;;11.57;6.13;;;17.40;97.30;;;;;;5038265;28;20450;-83
2021/08/31 09:41:35;;;;;;;8.50;5.37;;;17.50;97.30;;;;;;5037212;28;20410;-83
2021/08/31 09:44:04;;;;;;;10.10;5.87;;;17.80;97.30;;;;;;5030783;28;20445;-83
2021/08/31 09:46:55;;;;;;;9.23;5.70;;;17.90;97.30;;;;;;5042929;28;20477;-83
2021/08/31 09:49:36;;;;;;;9.90;5.80;;;17.90;97.30;;;;;;5018158;28;20465;-83
2021/08/31 09:52:14;;;;;;;11.10;6.00;;;17.90;97.30;;;;;;5041615;28;20437;-82
2021/08/31 09:54:50;;;;;;;10.60;5.80;;;17.70;97.30;;;;;;5047384;28;20461;-83
2021/08/31 09:57:26;;;;;;;17.03;6.90;;;17.70;97.30;;;;;;5035358;28;20580;-83
2021/08/31 09:59:52;;;;;;;14.23;6.00;;;17.80;97.30;;;;;;5035269;28;20500;-83
2021/08/31 10:02:18;;;;;;;10.77;6.20;;;17.90;97.30;;;;;;5034311;28;20419;-82
2021/08/31 10:04:43;;;;;;;10.90;6.93;;;17.90;97.30;;;;;;5034643;28;20439;-83
2021/08/31 10:07:10;;;;;;;10.13;5.70;;;17.90;97.30;;;;;;5021833;28;20647;-83
2021/08/31 10:09:44;;;;;;;9.00;5.83;;;17.80;97.30;;;;;;5052733;28;20187;-83
2021/08/31 10:12:10;;;;;;;11.20;7.17;;;17.80;97.30;;;;;;5039509;28;20418;-84
2021/08/31 10:14:42;;;;;;;11.13;6.57;;;17.80;97.30;;;;;;5038063;28;20512;-82
2021/08/31 10:17:10;;;;;;;11.77;6.00;;;17.90;97.30;;;;;;5039138;28;20168;-84
2021/08/31 10:19:39;;;;;;;12.33;6.40;;;17.90;97.30;;;;;;5038608;28;20486;-83
2021/08/31 10:22:05;;;;;;;9.20;5.60;;;18.00;97.30;;;;;;5030092;28;20447;-83
2021/08/31 10:24:30;;;;;;;10.50;5.93;;;18.00;97.30;;;;;;5036648;28;20497;-83
2021/08/31 10:26:56;;;;;;;14.67;5.60;;;17.90;97.30;;;;;;5033755;28;20719;-84
2021/08/31 10:29:22;;;;;;;14.33;6.20;;;17.90;97.30;;;;;;5036901;28;20196;-84
2021/08/31 10:31:49;;;;;;;10.50;5.93;;;17.90;97.30;;;;;;5037095;28;20666;-84
2021/08/31 10:34:30;;;;;;;6.70;4.93;;;18.00;97.30;;;;;;5054467;28;20293;-84
2021/08/31 10:37:16;;;;;;;10.40;7.03;;;18.00;97.30;;;;;;5036010;28;20426;-84
2021/08/31 10:39:45;;;;;;;9.13;5.63;;;18.10;97.30;;;;;;5035962;28;20446;-84
2021/08/31 10:42:26;;;;;;;7.37;5.20;;;18.20;97.30;;;;;;5036176;28;20508;-84
2021/08/31 10:44:56;;;;;;;12.60;4.83;;;18.30;97.30;;;;;;5053623;28;20487;-84
2021/08/31 10:47:33;;;;;;;8.40;5.23;;;18.30;97.30;;;;;;5036318;28;20415;-84
2021/08/31 10:49:59;;;;;;;8.07;5.43;;;18.40;97.30;;;;;;5037337;28;20415;-84
2021/08/31 10:53:02;;;;;;;10.00;5.97;;;18.40;97.30;;;;;;5037576;28;20410;-83
2021/08/31 10:55:27;;;;;;;12.80;6.40;;;18.30;97.30;;;;;;5037662;28;20678;-83
2021/08/31 10:57:58;;;;;;;14.70;6.20;;;18.30;97.30;;;;;;5036552;28;20467;-84
2021/08/31 11:00:24;;;;;;;9.53;6.20;;;18.40;97.30;;;;;;5036744;28;20186;-84
2021/08/31 11:02:54;;;;;;;10.27;5.60;;;18.40;97.30;;;;;;5036651;28;20422;-84
2021/08/31 11:05:25;;;;;;;11.03;6.10;;;18.50;97.30;;;;;;5022232;28;20196;-84
2021/08/31 11:08:13;;;;;;;9.60;6.03;;;18.70;97.30;;;;;;5029004;28;20426;-84
2021/08/31 11:10:41;;;;;;;10.80;5.23;;;18.70;97.30;;;;;;5047702;28;20410;-84
2021/08/31 11:13:21;;;;;;;9.60;6.13;;;18.70;97.30;;;;;;5025261;28;20422;-84
2021/08/31 11:15:47;;;;;;;8.93;5.50;;;18.80;97.30;;;;;;5015688;28;20439;-83
2021/08/31 11:18:15;;;;;;;12.47;5.60;;;18.70;97.30;;;;;;5031430;28;20449;-83
2021/08/31 11:20:46;;;;;;;12.47;6.40;;;18.70;97.30;;;;;;5036498;28;20790;-84
2021/08/31 11:23:19;;;;;;;9.60;6.10;;;18.60;97.30;;;;;;5036791;28;20425;-84
2021/08/31 11:25:47;;;;;;;13.60;5.50;;;18.60;97.30;;;;;;5037246;28;20438;-84
2021/08/31 11:28:16;;;;;;;8.80;5.70;;;18.60;97.30;;;;;;5036409;28;20450;-84
2021/08/31 11:30:50;;;;;;;10.73;5.30;;;18.70;97.30;;;;;;5036256;28;20421;-84
2021/08/31 11:33:23;;;;;;;9.90;5.13;;;18.80;97.30;;;;;;5036686;28;20512;-84
2021/08/31 11:35:52;;;;;;;8.97;5.27;;;18.80;97.30;;;;;;5033518;28;20481;-83
2021/08/31 11:38:49;;;;;;;11.90;6.30;;;18.90;97.30;;;;;;5024152;28;20834;-83
2021/08/31 11:41:44;;;;;;;10.03;5.73;;;18.90;97.30;;;;;;4999525;28;20418;-84
2021/08/31 11:44:09;;;;;;;10.30;5.87;;;19.00;97.30;;;;;;5033248;28;20520;-84
2021/08/31 11:46:38;;;;;;;10.10;5.60;;;19.10;97.30;;;;;;5034330;28;20454;-83
2021/08/31 11:49:24;;;;;;;10.00;6.13;;;19.10;97.30;;;;;;5053437;28;20249;-84
2021/08/31 11:52:11;;;;;;;8.33;5.70;;;19.10;97.30;;;;;;5036765;28;20421;-84
2021/08/31 11:54:45;;;;;;;11.40;5.70;;;19.30;97.30;;;;;;5036425;28;20434;-84
2021/08/31 11:57:15;;;;;;;14.23;6.50;;;19.30;97.30;;;;;;5036067;28;20403;-84
2021/08/31 11:59:44;;;;;;;10.27;5.90;;;19.40;97.30;;;;;;5035344;28;20446;-83
2021/08/31 12:02:19;;;;;;;10.23;6.40;;;19.50;97.30;;;;;;5036068;28;21150;-84
2021/08/31 12:05:04;;;;;;;12.00;6.90;;;19.50;97.30;;;;;;5031579;28;20442;-84
2021/08/31 12:07:31;;;;;;;9.03;5.30;;;19.50;97.30;;;;;;5014832;28;20395;-84
2021/08/31 12:09:59;;;;;;;8.20;5.77;;;19.50;97.30;;;;;;5014951;28;20419;-84
2021/08/31 12:12:25;;;;;;;12.83;5.77;;;19.60;97.30;;;;;;5015062;28;20515;-83
2021/08/31 12:14:51;;;;;;;10.70;6.10;;;19.80;97.30;;;;;;5020011;28;20436;-83
2021/08/31 12:17:32;;;;;;;12.00;6.27;;;20.00;97.30;;;;;;5025637;28;20187;-83
2021/08/31 12:20:22;;;;;;;15.23;6.17;;;20.30;97.30;;;;;;5030563;28;20455;-84
2021/08/31 12:22:49;;;;;;;8.80;5.33;;;20.40;97.30;;;;;;5036195;28;20421;-83
2021/08/31 12:25:18;;;;;;;12.90;6.60;;;20.30;97.30;;;;;;5035723;28;20460;-84
2021/08/31 12:27:53;;;;;;;9.63;5.67;;;20.40;97.30;;;;;;5034978;28;20936;-84
2021/08/31 12:30:33;;;;;;;9.93;4.50;;;20.50;97.30;;;;;;5045158;28;20414;-84
2021/08/31 12:32:58;;;;;;;10.30;5.77;;;20.50;97.30;;;;;;5052721;28;20424;-84
2021/08/31 12:35:36;;;;;;;9.50;5.10;;;20.60;97.30;;;;;;5034155;28;20458;-84
2021/08/31 12:38:26;;;;;;;8.10;4.80;;;20.60;97.30;;;;;;5034540;28;20198;-84
2021/08/31 12:40:51;;;;;;;11.10;5.33;;;20.50;97.30;;;;;;5034458;28;20453;-83
2021/08/31 12:43:18;;;;;;;8.70;5.27;;;20.30;97.30;;;;;;5032885;28;21198;-85